createdAt,value
2023-03-22T00:01:40.828Z,9.03
2023-03-22T00:04:09.860Z,8.40
2023-03-22T00:06:37.808Z,9.10
2023-03-22T00:09:05.706Z,7.00
2023-03-22T00:11:33.443Z,6.43
2023-03-22T00:14:01.335Z,7.20
2023-03-22T00:16:29.201Z,6.13
2023-03-22T00:18:56.889Z,9.60
2023-03-22T00:21:25.982Z,7.10
2023-03-22T00:23:53.740Z,7.57
2023-03-22T00:26:21.594Z,11.30
2023-03-22T00:28:49.495Z,7.70
2023-03-22T00:31:17.337Z,7.90
2023-03-22T00:33:45.013Z,7.37
2023-03-22T00:36:14.008Z,8.17
2023-03-22T00:38:44.245Z,10.57
2023-03-22T00:41:14.080Z,7.83
2023-03-22T00:43:42.177Z,11.27
2023-03-22T00:46:10.771Z,8.20
2023-03-22T00:48:38.795Z,8.47
2023-03-22T00:51:06.851Z,7.47
2023-03-22T00:53:36.332Z,10.13
2023-03-22T00:56:06.769Z,10.83
2023-03-22T00:58:34.916Z,8.73
2023-03-22T01:01:02.599Z,9.03
2023-03-22T01:03:30.332Z,9.43
2023-03-22T01:05:58.079Z,8.13
2023-03-22T01:08:25.782Z,10.00
2023-03-22T01:10:53.509Z,10.23
2023-03-22T01:13:22.646Z,10.90
2023-03-22T01:15:51.434Z,11.27
2023-03-22T01:18:19.766Z,9.37
2023-03-22T01:20:47.539Z,12.57
2023-03-22T01:23:15.311Z,10.50
2023-03-22T01:25:43.038Z,10.00
2023-03-22T01:28:10.706Z,12.60
2023-03-22T01:30:41.771Z,12.93
2023-03-22T01:33:09.935Z,13.50
2023-03-22T01:35:37.845Z,10.43
2023-03-22T01:38:05.578Z,13.07
2023-03-22T01:40:33.862Z,11.47
2023-03-22T01:43:01.555Z,14.17
2023-03-22T01:45:47.658Z,11.33
2023-03-22T01:48:28.871Z,11.83
2023-03-22T01:51:03.915Z,11.80
2023-03-22T01:53:34.740Z,12.80
2023-03-22T01:56:03.501Z,19.47
2023-03-22T01:58:32.954Z,12.40
2023-03-22T02:01:02.196Z,12.57
2023-03-22T02:03:37.821Z,12.87
2023-03-22T02:06:05.761Z,13.97
2023-03-22T02:08:33.965Z,14.60
2023-03-22T02:11:04.135Z,12.93
2023-03-22T02:13:42.823Z,13.67
2023-03-22T02:16:25.802Z,14.47
2023-03-22T02:19:08.257Z,12.97
2023-03-22T02:22:01.337Z,15.10
2023-03-22T02:24:56.242Z,13.97
2023-03-22T02:27:35.274Z,14.20
2023-03-22T02:30:26.105Z,14.73
2023-03-22T02:33:25.681Z,15.63
2023-03-22T02:36:22.282Z,14.70
2023-03-22T02:39:17.389Z,16.00
2023-03-22T02:41:58.651Z,15.13
2023-03-22T02:44:30.381Z,16.33
2023-03-22T02:47:03.267Z,15.73
2023-03-22T02:49:37.036Z,15.13
2023-03-22T02:52:12.564Z,13.80
2023-03-22T02:54:46.764Z,16.10
2023-03-22T02:57:20.491Z,13.77
2023-03-22T02:59:49.651Z,14.73
2023-03-22T03:02:19.574Z,14.07
2023-03-22T03:04:49.740Z,14.73
2023-03-22T03:07:21.747Z,17.00
2023-03-22T03:09:52.143Z,18.00
2023-03-22T03:12:21.899Z,15.00
2023-03-22T03:14:49.627Z,16.13
2023-03-22T03:17:29.978Z,15.03
2023-03-22T03:20:14.321Z,17.67
2023-03-22T03:22:52.296Z,16.57
2023-03-22T03:25:27.925Z,15.83
2023-03-22T03:28:03.134Z,13.53
2023-03-22T03:30:35.658Z,15.30
2023-03-22T03:33:09.198Z,16.47
2023-03-22T03:35:40.852Z,14.47
2023-03-22T03:38:11.781Z,15.57
2023-03-22T03:40:44.406Z,16.40
2023-03-22T03:43:13.418Z,14.97
2023-03-22T03:45:41.825Z,16.67
2023-03-22T03:48:12.509Z,18.27
2023-03-22T03:50:40.668Z,17.77
2023-03-22T03:53:08.559Z,15.93
2023-03-22T03:55:37.546Z,17.63
2023-03-22T03:58:06.862Z,19.97
2023-03-22T04:00:34.586Z,18.00
2023-03-22T04:03:02.307Z,16.10
2023-03-22T04:05:29.942Z,19.13
2023-03-22T04:07:57.721Z,15.77
2023-03-22T04:10:25.744Z,15.87
2023-03-22T04:12:53.455Z,15.97
2023-03-22T04:15:22.628Z,18.63
2023-03-22T04:17:51.117Z,16.00
2023-03-22T04:20:19.563Z,15.40
2023-03-22T04:22:48.406Z,18.07
2023-03-22T04:25:18.239Z,17.87
2023-03-22T04:27:51.339Z,18.20
2023-03-22T04:30:20.420Z,17.13
2023-03-22T04:32:50.067Z,16.27
2023-03-22T04:35:18.200Z,15.80
2023-03-22T04:37:45.890Z,16.03
2023-03-22T04:40:17.055Z,16.70
2023-03-22T04:42:45.496Z,18.53
2023-03-22T04:45:13.835Z,17.60
2023-03-22T04:47:41.871Z,15.20
2023-03-22T04:50:11.656Z,14.03
2023-03-22T04:52:39.396Z,15.80
2023-03-22T04:55:07.494Z,19.50
2023-03-22T04:57:35.727Z,18.43
2023-03-22T05:00:06.561Z,17.63
2023-03-22T05:02:34.268Z,17.40
2023-03-22T05:05:01.967Z,17.83
2023-03-22T05:07:31.088Z,19.07
2023-03-22T05:09:58.769Z,18.00
2023-03-22T05:12:27.026Z,16.50
2023-03-22T05:14:54.915Z,18.10
2023-03-22T05:17:22.782Z,17.30
2023-03-22T05:19:52.267Z,19.43
2023-03-22T05:22:22.380Z,18.00
2023-03-22T05:24:51.778Z,17.23
2023-03-22T05:27:31.454Z,16.57
2023-03-22T05:29:59.391Z,17.63
2023-03-22T05:32:29.220Z,16.83
2023-03-22T05:34:57.280Z,19.33
2023-03-22T05:37:25.386Z,20.17
2023-03-22T05:39:54.656Z,16.13
2023-03-22T05:42:22.810Z,16.83
2023-03-22T05:44:51.327Z,16.00
2023-03-22T05:47:18.981Z,18.90
2023-03-22T05:49:46.944Z,15.37
2023-03-22T05:52:14.726Z,16.47
2023-03-22T05:54:42.513Z,16.60
2023-03-22T05:57:11.610Z,19.47
2023-03-22T05:59:39.512Z,16.93
2023-03-22T06:02:07.256Z,17.23
2023-03-22T06:04:35.031Z,18.00
2023-03-22T06:07:02.898Z,17.73
2023-03-22T06:09:30.915Z,17.07
2023-03-22T06:11:59.541Z,16.97
2023-03-22T06:14:28.618Z,16.90
2023-03-22T06:16:56.325Z,17.47
2023-03-22T06:19:25.638Z,17.23
2023-03-22T06:21:54.778Z,15.83
2023-03-22T06:24:22.862Z,16.80
2023-03-22T06:26:51.348Z,18.17
2023-03-22T06:29:19.033Z,17.23
2023-03-22T06:31:48.297Z,15.80
2023-03-22T06:34:16.007Z,16.57
2023-03-22T06:36:43.746Z,15.50
2023-03-22T06:39:11.507Z,17.23
2023-03-22T06:41:39.222Z,16.37
2023-03-22T06:44:07.060Z,18.87
2023-03-22T06:46:34.845Z,17.13
2023-03-22T06:49:03.874Z,15.63
2023-03-22T06:51:31.633Z,15.90
2023-03-22T06:53:59.514Z,14.83
2023-03-22T06:56:27.285Z,16.83
2023-03-22T06:58:57.942Z,16.17
2023-03-22T07:01:26.554Z,16.03
2023-03-22T07:03:54.231Z,15.23
2023-03-22T07:06:23.386Z,17.00
2023-03-22T07:08:52.162Z,15.90
2023-03-22T07:11:20.265Z,14.57
2023-03-22T07:13:47.959Z,13.90
2023-03-22T07:16:17.090Z,16.83
2023-03-22T07:18:46.492Z,16.30
2023-03-22T07:21:14.251Z,16.27
2023-03-22T07:23:43.580Z,16.27
2023-03-22T07:26:13.235Z,14.37
2023-03-22T07:28:44.459Z,17.20
2023-03-22T07:31:13.340Z,17.97
2023-03-22T07:33:41.810Z,18.73
2023-03-22T07:36:11.046Z,15.17
2023-03-22T07:38:38.834Z,16.17
2023-03-22T07:41:08.177Z,16.80
2023-03-22T07:43:47.473Z,15.10
2023-03-22T07:46:18.787Z,16.77
2023-03-22T07:48:46.497Z,15.97
2023-03-22T07:51:14.205Z,18.83
2023-03-22T07:53:41.898Z,18.27
2023-03-22T07:56:11.531Z,15.03
2023-03-22T07:58:39.431Z,13.17
2023-03-22T08:01:09.233Z,13.93
2023-03-22T08:03:38.324Z,14.10
2023-03-22T08:06:08.128Z,14.53
2023-03-22T08:08:36.987Z,11.90
2023-03-22T08:11:04.868Z,14.43
2023-03-22T08:13:34.349Z,21.57
2023-03-22T08:16:02.124Z,14.30
2023-03-22T08:18:29.949Z,15.73
2023-03-22T08:20:59.034Z,16.43
2023-03-22T08:23:40.569Z,11.93
2023-03-22T08:26:10.342Z,11.33
2023-03-22T08:28:39.495Z,11.80
2023-03-22T08:31:13.913Z,11.03
2023-03-22T08:33:43.369Z,13.37
2023-03-22T08:36:15.462Z,12.20
2023-03-22T08:38:45.083Z,12.43
2023-03-22T08:41:13.090Z,18.43
2023-03-22T08:43:42.239Z,12.83
2023-03-22T08:46:10.171Z,12.80
2023-03-22T08:48:38.460Z,10.90
2023-03-22T08:51:07.316Z,13.23
2023-03-22T08:53:35.006Z,13.97
2023-03-22T08:56:03.624Z,14.60
2023-03-22T08:58:31.498Z,21.20
2023-03-22T09:01:00.673Z,12.73
2023-03-22T09:03:28.467Z,10.43
2023-03-22T09:05:56.231Z,12.27
2023-03-22T09:08:23.896Z,13.07
2023-03-22T09:10:52.293Z,11.43
2023-03-22T09:13:20.966Z,10.23
2023-03-22T09:15:49.121Z,10.37
2023-03-22T09:18:18.242Z,12.27
2023-03-22T09:20:46.187Z,10.53
2023-03-22T09:23:15.374Z,27.77
2023-03-22T09:25:45.347Z,9.97
2023-03-22T09:28:13.629Z,8.70
2023-03-22T09:30:41.652Z,9.97
2023-03-22T09:33:09.871Z,9.03
2023-03-22T09:35:42.557Z,10.43
2023-03-22T09:38:12.145Z,9.40
2023-03-22T09:40:47.618Z,7.87
2023-03-22T09:43:16.695Z,10.07
2023-03-22T09:45:49.455Z,8.17
2023-03-22T09:48:21.641Z,8.30
2023-03-22T09:50:54.373Z,9.57
2023-03-22T09:53:24.668Z,9.03
2023-03-22T09:56:00.168Z,9.07
2023-03-22T09:58:33.940Z,8.63
2023-03-22T10:01:05.692Z,7.60
2023-03-22T10:03:57.990Z,11.63
2023-03-22T10:06:29.580Z,7.77
2023-03-22T10:09:03.818Z,7.70
2023-03-22T10:11:41.674Z,7.27
2023-03-22T10:14:27.665Z,8.20
2023-03-22T10:16:57.140Z,7.17
2023-03-22T10:19:31.363Z,7.70
2023-03-22T10:22:03.024Z,6.97
2023-03-22T10:24:33.751Z,6.67
2023-03-22T10:27:01.924Z,6.47
2023-03-22T10:29:35.298Z,6.50
2023-03-22T10:32:15.155Z,7.03
2023-03-22T10:34:43.918Z,6.00
2023-03-22T10:37:16.365Z,10.13
2023-03-22T10:39:48.325Z,7.30
2023-03-22T10:42:20.317Z,6.10
2023-03-22T10:44:51.314Z,6.87
2023-03-22T10:47:26.327Z,6.40
2023-03-22T10:49:57.127Z,8.10
2023-03-22T10:52:39.488Z,6.07
2023-03-22T10:55:11.247Z,3.87
2023-03-22T10:57:40.021Z,5.47
2023-03-22T11:00:11.557Z,5.47
2023-03-22T11:02:48.081Z,6.87
2023-03-22T11:05:25.776Z,8.63
2023-03-22T11:07:55.356Z,5.07
2023-03-22T11:10:27.986Z,4.63
2023-03-22T11:13:11.583Z,4.27
2023-03-22T11:15:42.686Z,5.80
2023-03-22T11:18:15.743Z,6.20
2023-03-22T11:20:53.101Z,6.40
2023-03-22T11:23:22.720Z,4.40
2023-03-22T11:25:52.047Z,4.40
2023-03-22T11:28:22.059Z,5.47
2023-03-22T11:31:01.794Z,8.17
2023-03-22T11:33:30.409Z,5.67
2023-03-22T11:35:59.811Z,4.13
2023-03-22T11:38:31.499Z,7.03
2023-03-22T11:41:02.472Z,6.53
2023-03-22T11:43:35.430Z,5.87
2023-03-22T11:46:04.195Z,5.57
2023-03-22T11:48:34.576Z,3.83
2023-03-22T11:51:09.390Z,4.87
2023-03-22T11:53:41.269Z,3.93
2023-03-22T11:56:12.045Z,5.53
2023-03-22T11:58:56.320Z,4.37
2023-03-22T12:01:39.793Z,4.40
2023-03-22T12:04:12.319Z,3.47
2023-03-22T12:06:42.552Z,4.23
2023-03-22T12:09:23.856Z,4.97
2023-03-22T12:11:54.560Z,6.10
2023-03-22T12:14:25.928Z,4.33
2023-03-22T12:16:58.866Z,3.60
2023-03-22T12:19:50.986Z,4.27
2023-03-22T12:22:22.447Z,6.03
2023-03-22T12:24:51.649Z,4.27
2023-03-22T12:27:23.214Z,5.47
2023-03-22T12:30:00.380Z,4.97
2023-03-22T12:32:31.628Z,3.83
2023-03-22T12:35:14.157Z,4.73
2023-03-22T12:37:48.454Z,3.23
2023-03-22T12:40:23.461Z,3.97
2023-03-22T12:43:01.511Z,7.67
2023-03-22T12:45:31.771Z,3.20
2023-03-22T12:48:05.810Z,5.13
2023-03-22T12:50:37.717Z,4.00
2023-03-22T12:53:06.607Z,3.60
2023-03-22T12:55:39.332Z,3.70
2023-03-22T12:58:08.692Z,3.07
2023-03-22T13:00:41.657Z,3.87
2023-03-22T13:03:24.095Z,4.13
2023-03-22T13:06:02.414Z,4.20
2023-03-22T13:09:16.869Z,3.53
2023-03-22T13:11:48.720Z,6.63
2023-03-22T13:14:52.386Z,3.13
2023-03-22T13:17:39.385Z,6.60
2023-03-22T13:20:34.073Z,5.30
2023-03-22T13:23:11.911Z,6.13
2023-03-22T13:25:58.847Z,3.43
2023-03-22T13:28:30.856Z,3.93
2023-03-22T13:31:00.078Z,4.53
2023-03-22T13:33:29.700Z,4.03
2023-03-22T13:35:59.717Z,2.77
2023-03-22T13:38:29.689Z,4.53
2023-03-22T13:41:04.368Z,3.20
2023-03-22T13:43:36.243Z,7.13
2023-03-22T13:46:12.212Z,5.63
2023-03-22T13:48:52.281Z,3.27
2023-03-22T13:51:23.454Z,6.30
2023-03-22T13:54:00.249Z,3.97
2023-03-22T13:56:34.486Z,3.43
2023-03-22T13:59:05.328Z,5.13
2023-03-22T14:01:36.214Z,5.20
2023-03-22T14:04:10.143Z,6.30
2023-03-22T14:06:46.042Z,2.70
2023-03-22T14:09:22.038Z,3.53
2023-03-22T14:11:56.559Z,6.13
2023-03-22T14:14:30.797Z,3.77
2023-03-22T14:17:05.419Z,3.90
2023-03-22T14:19:35.875Z,4.73
